Time;durP1;ratioP1;P1;durP2;ratioP2;P2;SDS_P1;SDS_P2;PMS_P1;PMS_P2;Temp;Humidity;BMP_temperature;BMP_pressure;BME280_temperature;BME280_humidity;BME280_pressure;Samples;Min_cycle;Max_cycle;Signal;HPM_P1;HPM_P2
2023/01/14 00:02:18;;;;;;;1.60;1.13;;;18.20;57.60;;;;;;5093026;28;20181;-63
2023/01/14 00:04:44;;;;;;;2.38;1.15;;;18.20;57.60;;;;;;5092694;28;20182;-63
2023/01/14 00:07:09;;;;;;;2.03;1.23;;;18.10;57.60;;;;;;5092459;28;20182;-62
2023/01/14 00:09:35;;;;;;;3.05;1.10;;;18.00;57.50;;;;;;5092735;28;20173;-62
2023/01/14 00:12:00;;;;;;;2.20;1.38;;;18.10;57.50;;;;;;5092835;28;20185;-62
2023/01/14 00:14:30;;;;;;;3.90;1.40;;;18.10;57.60;;;;;;5092037;28;20229;-62
2023/01/14 00:16:56;;;;;;;2.22;1.20;;;18.10;57.60;;;;;;5092580;28;20652;-62
2023/01/14 00:19:22;;;;;;;3.95;1.33;;;18.10;57.60;;;;;;5093131;28;20174;-62
2023/01/14 00:21:48;;;;;;;5.45;1.50;;;18.00;57.40;;;;;;5092203;28;20619;-62
2023/01/14 00:24:14;;;;;;;2.83;1.30;;;18.00;57.40;;;;;;5092937;28;20537;-62
2023/01/14 00:26:42;;;;;;;3.47;1.20;;;18.10;57.50;;;;;;5092770;28;20185;-62
2023/01/14 00:29:16;;;;;;;2.90;1.27;;;18.00;57.50;;;;;;5092244;28;20174;-62
2023/01/14 00:31:43;;;;;;;2.50;1.20;;;17.90;57.40;;;;;;5092558;28;20172;-62
2023/01/14 00:34:08;;;;;;;2.78;1.25;;;18.00;57.40;;;;;;5092930;28;20265;-62
2023/01/14 00:36:34;;;;;;;1.52;1.13;;;17.90;57.40;;;;;;5091685;28;20296;-62
2023/01/14 00:38:59;;;;;;;3.63;1.40;;;17.90;57.40;;;;;;5092900;28;20265;-63
2023/01/14 00:41:25;;;;;;;2.45;1.45;;;17.90;57.40;;;;;;5092856;28;20261;-63
2023/01/14 00:43:55;;;;;;;2.47;1.52;;;17.90;57.40;;;;;;5091480;28;20556;-63
2023/01/14 00:46:24;;;;;;;5.15;1.40;;;17.90;57.30;;;;;;5092594;28;20595;-62
2023/01/14 00:48:50;;;;;;;1.73;1.23;;;17.80;57.90;;;;;;5091784;28;20256;-62
2023/01/14 00:51:16;;;;;;;1.75;1.25;;;17.80;57.30;;;;;;5092643;28;20689;-62
2023/01/14 00:53:42;;;;;;;3.55;1.20;;;17.80;57.30;;;;;;5092455;28;20181;-62
2023/01/14 00:56:07;;;;;;;4.13;1.27;;;17.80;57.20;;;;;;5091833;28;20289;-61
2023/01/14 00:58:33;;;;;;;3.50;1.30;;;17.80;57.30;;;;;;5092357;28;20197;-62
2023/01/14 01:00:59;;;;;;;2.35;1.02;;;17.80;57.30;;;;;;5092842;28;20174;-62
2023/01/14 01:03:25;;;;;;;3.45;1.15;;;17.80;57.30;;;;;;5091952;28;20170;-63
2023/01/14 01:05:50;;;;;;;2.95;1.23;;;17.70;57.20;;;;;;5092399;28;20182;-62
2023/01/14 01:08:17;;;;;;;3.58;1.85;;;17.70;57.20;;;;;;5092438;28;20215;-61
2023/01/14 01:10:43;;;;;;;3.00;1.30;;;17.70;57.20;;;;;;5091478;28;20186;-61
2023/01/14 01:13:09;;;;;;;2.50;1.13;;;17.70;57.20;;;;;;5092444;28;20532;-62
2023/01/14 01:15:35;;;;;;;3.50;1.55;;;17.70;57.20;;;;;;5091805;28;20225;-62
2023/01/14 01:18:01;;;;;;;4.05;1.27;;;17.70;57.20;;;;;;5091833;28;20178;-62
2023/01/14 01:20:27;;;;;;;5.30;1.45;;;17.70;57.20;;;;;;5092400;28;20189;-62
2023/01/14 01:22:52;;;;;;;4.78;1.50;;;17.60;57.10;;;;;;5093748;28;20180;-61
2023/01/14 01:25:18;;;;;;;2.63;1.30;;;17.70;57.20;;;;;;5095243;28;20192;-61
2023/01/14 01:27:43;;;;;;;3.15;1.60;;;17.60;57.10;;;;;;5095767;28;20178;-61
2023/01/14 01:30:10;;;;;;;1.98;1.20;;;17.60;57.10;;;;;;5095903;28;20632;-62
2023/01/14 01:32:35;;;;;;;4.20;1.70;;;17.60;57.10;;;;;;5095002;28;20173;-62
2023/01/14 01:35:01;;;;;;;3.33;1.17;;;17.60;57.20;;;;;;5095888;28;20209;-62
2023/01/14 01:37:27;;;;;;;3.25;1.58;;;17.60;57.20;;;;;;5095860;28;20637;-62
2023/01/14 01:39:53;;;;;;;4.38;1.45;;;17.60;57.10;;;;;;5094934;28;20250;-62
2023/01/14 01:42:21;;;;;;;4.20;1.50;;;17.50;57.10;;;;;;5095542;28;20621;-63
2023/01/14 01:44:47;;;;;;;3.25;2.05;;;17.60;57.20;;;;;;5061501;28;20201;-62
2023/01/14 01:47:12;;;;;;;3.78;1.77;;;17.50;57.10;;;;;;5094808;28;20206;-62
2023/01/14 01:49:38;;;;;;;3.83;1.65;;;17.50;57.10;;;;;;5077341;28;20174;-61
2023/01/14 01:52:24;;;;;;;4.43;1.80;;;17.50;57.10;;;;;;5060303;28;20684;-61
2023/01/14 01:54:59;;;;;;;4.78;1.80;;;17.50;57.10;;;;;;5095084;28;20209;-61
2023/01/14 01:57:25;;;;;;;5.55;2.00;;;17.50;57.10;;;;;;5095705;28;20173;-61
2023/01/14 01:59:55;;;;;;;4.03;1.60;;;17.50;57.00;;;;;;5094415;28;20182;-62
2023/01/14 02:02:21;;;;;;;6.78;1.80;;;17.40;56.90;;;;;;5095409;28;20202;-63
2023/01/14 02:04:46;;;;;;;5.40;1.80;;;17.50;57.10;;;;;;5094920;28;20185;-63
2023/01/14 02:07:30;;;;;;;3.05;1.40;;;17.40;57.00;;;;;;5094410;28;20165;-62
2023/01/14 02:10:00;;;;;;;4.25;2.08;;;17.40;57.00;;;;;;5095052;28;20652;-61
2023/01/14 02:12:49;;;;;;;4.25;1.55;;;17.40;56.90;;;;;;5061088;28;20218;-62
2023/01/14 02:15:29;;;;;;;4.90;1.83;;;17.40;57.00;;;;;;5094174;28;20232;-62
2023/01/14 02:18:03;;;;;;;5.07;1.83;;;17.40;56.90;;;;;;5076981;28;20186;-62
2023/01/14 02:20:49;;;;;;;3.70;1.60;;;17.40;56.90;;;;;;5076395;28;20174;-62
2023/01/14 02:23:31;;;;;;;2.25;1.42;;;17.40;56.90;;;;;;5061551;28;20223;-62
2023/01/14 02:26:21;;;;;;;3.40;1.58;;;17.40;56.90;;;;;;5076736;28;20193;-62
2023/01/14 02:29:23;;;;;;;4.40;1.92;;;17.40;56.90;;;;;;5093961;28;20177;-62
2023/01/14 02:32:07;;;;;;;5.88;1.90;;;17.30;56.80;;;;;;5094484;28;20196;-62
2023/01/14 02:34:47;;;;;;;3.05;1.45;;;17.40;56.90;;;;;;5078173;28;20162;-62
2023/01/14 02:37:18;;;;;;;4.45;1.70;;;17.30;56.90;;;;;;5094604;28;20540;-62
2023/01/14 02:40:06;;;;;;;3.55;1.92;;;17.30;56.80;;;;;;5076830;28;20636;-63
2023/01/14 02:45:33;;;;;;;4.45;1.73;;;17.30;56.80;;;;;;5065549;28;20173;-62
2023/01/14 02:47:59;;;;;;;4.43;2.10;;;17.30;56.90;;;;;;5061115;28;20185;-62
2023/01/14 02:50:25;;;;;;;6.85;2.00;;;17.30;56.80;;;;;;5059144;28;20262;-62
2023/01/14 02:52:51;;;;;;;4.90;1.70;;;17.30;56.80;;;;;;5059367;28;20678;-62
2023/01/14 02:55:31;;;;;;;4.40;1.60;;;17.30;56.80;;;;;;5093518;28;20240;-62
2023/01/14 02:58:05;;;;;;;4.65;2.20;;;17.20;56.70;;;;;;5094368;28;20205;-61
2023/01/14 03:00:53;;;;;;;6.03;2.08;;;17.20;56.70;;;;;;5094055;28;20177;-62
2023/01/14 03:03:26;;;;;;;4.32;1.77;;;17.20;56.70;;;;;;5093478;28;20173;-62
2023/01/14 03:05:59;;;;;;;5.32;1.90;;;17.20;56.70;;;;;;5075647;28;20655;-63
2023/01/14 03:08:51;;;;;;;3.65;1.90;;;17.20;56.70;;;;;;5076342;28;20291;-62
2023/01/14 03:11:17;;;;;;;4.53;1.85;;;17.20;56.70;;;;;;5075554;28;20202;-61
2023/01/14 03:13:57;;;;;;;4.97;2.00;;;17.20;56.70;;;;;;5075587;28;20557;-62
2023/01/14 03:16:33;;;;;;;3.10;1.80;;;17.20;56.70;;;;;;5076008;28;20221;-61
2023/01/14 03:19:04;;;;;;;3.72;1.77;;;17.20;56.70;;;;;;5093745;28;20647;-61
2023/01/14 03:21:35;;;;;;;7.15;1.92;;;17.20;56.60;;;;;;5093929;28;20184;-61
2023/01/14 03:24:06;;;;;;;6.55;2.22;;;17.20;56.70;;;;;;5075563;28;20647;-61
2023/01/14 03:26:32;;;;;;;4.55;1.83;;;17.20;56.70;;;;;;5075419;28;20185;-61
2023/01/14 03:29:00;;;;;;;5.93;2.08;;;17.20;56.70;;;;;;5075781;28;20177;-61
2023/01/14 03:31:26;;;;;;;4.20;2.15;;;17.10;56.70;;;;;;5075043;28;20672;-61
2023/01/14 03:33:55;;;;;;;4.47;1.92;;;17.10;56.70;;;;;;5075125;28;20628;-62
2023/01/14 03:36:21;;;;;;;5.93;2.38;;;17.10;56.70;;;;;;5075479;28;20224;-61
2023/01/14 03:38:51;;;;;;;4.30;2.00;;;17.10;56.70;;;;;;5074573;28;20165;-61
2023/01/14 03:42:17;;;;;;;5.15;2.00;;;17.10;56.70;;;;;;5093703;28;20169;-61
2023/01/14 03:44:06;;;;;;;4.10;1.58;;;17.10;56.70;;;;;;5078275;28;20202;-61
2023/01/14 03:46:31;;;;;;;3.92;1.83;;;17.10;56.70;;;;;;5074341;28;20602;-62
2023/01/14 03:48:57;;;;;;;5.70;1.85;;;17.00;56.70;;;;;;5093380;28;20161;-61
2023/01/14 03:51:27;;;;;;;5.45;2.40;;;17.10;56.70;;;;;;5075238;28;20170;-61
2023/01/14 03:54:00;;;;;;;4.32;2.35;;;17.10;56.80;;;;;;5074147;28;20246;-61
2023/01/14 03:56:39;;;;;;;4.40;1.88;;;17.00;56.70;;;;;;5075188;28;20221;-61
2023/01/14 03:59:10;;;;;;;4.50;2.17;;;17.00;56.70;;;;;;5074674;28;20177;-61
2023/01/14 04:01:49;;;;;;;4.55;2.03;;;17.00;56.70;;;;;;5074834;28;20173;-61
2023/01/14 04:04:15;;;;;;;7.25;1.75;;;17.00;56.70;;;;;;5075386;28;20184;-62
2023/01/14 04:06:40;;;;;;;4.55;1.67;;;17.00;56.60;;;;;;5074338;28;20530;-61
2023/01/14 04:09:07;;;;;;;7.65;2.28;;;17.00;56.70;;;;;;5075213;28;20600;-61
2023/01/14 04:11:32;;;;;;;4.53;2.22;;;17.00;56.70;;;;;;5074636;28;20636;-61
2023/01/14 04:16:42;;;;;;;5.13;1.73;;;17.00;57.30;;;;;;5092580;28;20613;-61
2023/01/14 04:19:07;;;;;;;8.30;2.78;;;16.90;56.60;;;;;;5092846;28;20174;-61
2023/01/14 04:21:33;;;;;;;5.05;2.00;;;17.00;56.60;;;;;;5091958;28;20177;-61
2023/01/14 04:23:58;;;;;;;6.70;2.05;;;17.00;56.70;;;;;;5093053;28;20215;-61
2023/01/14 04:26:24;;;;;;;3.80;1.95;;;16.90;56.60;;;;;;5092865;28;20223;-61
2023/01/14 04:28:49;;;;;;;6.85;2.65;;;16.90;56.60;;;;;;5091956;28;20166;-61
2023/01/14 04:31:15;;;;;;;3.92;1.83;;;16.90;56.60;;;;;;5092859;28;20173;-63
2023/01/14 04:33:40;;;;;;;6.65;2.47;;;16.90;56.60;;;;;;5092789;28;20170;-61
2023/01/14 04:36:07;;;;;;;5.53;2.05;;;16.90;56.60;;;;;;5092257;28;20205;-60
2023/01/14 04:38:32;;;;;;;3.92;1.88;;;16.90;56.60;;;;;;5092586;28;20260;-60
2023/01/14 04:40:58;;;;;;;5.05;2.15;;;16.90;56.70;;;;;;5092087;28;20201;-61
2023/01/14 04:43:23;;;;;;;8.13;2.47;;;16.90;56.60;;;;;;5092729;28;20193;-62
2023/01/14 04:45:50;;;;;;;5.32;2.10;;;16.90;56.60;;;;;;5092209;28;20178;-62
2023/01/14 04:48:17;;;;;;;5.45;2.20;;;16.90;56.60;;;;;;5091996;28;20521;-62
2023/01/14 04:50:44;;;;;;;5.88;2.40;;;16.90;56.60;;;;;;5092468;28;20554;-61
2023/01/14 04:53:11;;;;;;;5.53;2.42;;;16.90;56.70;;;;;;5092796;28;20259;-61
2023/01/14 04:55:38;;;;;;;6.03;2.22;;;16.80;56.50;;;;;;5091640;28;20605;-61
2023/01/14 04:58:04;;;;;;;6.32;2.58;;;16.80;56.50;;;;;;5094540;28;20629;-61
2023/01/14 05:00:30;;;;;;;7.30;2.58;;;16.80;56.50;;;;;;5096724;28;20174;-61
2023/01/14 05:02:55;;;;;;;5.30;2.33;;;16.80;56.50;;;;;;5095663;28;20535;-61
2023/01/14 05:05:21;;;;;;;5.65;2.10;;;16.80;56.60;;;;;;5096544;28;20182;-62
2023/01/14 05:07:46;;;;;;;7.50;2.75;;;16.80;57.20;;;;;;5096125;28;20170;-62
2023/01/14 05:10:12;;;;;;;6.75;2.33;;;16.80;56.60;;;;;;5095608;28;20172;-61
2023/01/14 05:12:37;;;;;;;5.93;2.45;;;16.80;56.50;;;;;;5095978;28;20180;-61
2023/01/14 05:15:03;;;;;;;6.65;2.20;;;16.80;56.50;;;;;;5096055;28;20229;-61
2023/01/14 05:17:29;;;;;;;5.03;2.10;;;16.80;56.50;;;;;;5095710;28;20196;-61
2023/01/14 05:19:54;;;;;;;5.25;1.90;;;16.80;56.50;;;;;;5096015;28;20522;-61
2023/01/14 05:22:20;;;;;;;7.10;2.75;;;16.80;56.50;;;;;;5096013;28;20613;-61
2023/01/14 05:24:45;;;;;;;5.78;2.22;;;16.80;56.60;;;;;;5095063;28;20170;-61
2023/01/14 05:27:11;;;;;;;5.65;2.35;;;16.80;56.50;;;;;;5096004;28;20173;-62
2023/01/14 05:29:38;;;;;;;5.75;2.10;;;16.80;56.50;;;;;;5095662;28;20177;-61
2023/01/14 05:32:04;;;;;;;5.68;2.42;;;16.70;56.50;;;;;;5095091;28;20578;-62
2023/01/14 05:34:30;;;;;;;7.00;3.05;;;16.70;56.50;;;;;;5095756;28;20184;-62
2023/01/14 05:36:56;;;;;;;6.13;2.50;;;16.70;56.50;;;;;;5095708;28;20182;-62
2023/01/14 05:39:22;;;;;;;5.03;2.53;;;16.70;56.50;;;;;;5095032;28;20242;-62
2023/01/14 05:47:16;;;;;;;3.88;2.03;;;16.70;56.50;;;;;;5095852;28;20659;-62
2023/01/14 05:49:41;;;;;;;5.75;2.33;;;16.70;56.50;;;;;;5095387;28;20173;-61
2023/01/14 05:52:07;;;;;;;5.53;2.17;;;16.70;56.50;;;;;;5094796;28;20652;-61
2023/01/14 05:54:32;;;;;;;7.47;2.80;;;16.70;56.50;;;;;;5095123;28;20643;-60
2023/01/14 05:56:58;;;;;;;5.85;1.90;;;16.70;56.50;;;;;;5095430;28;20174;-60
2023/01/14 05:59:23;;;;;;;6.22;2.20;;;16.70;56.60;;;;;;5094789;28;20195;-61
2023/01/14 06:07:17;;;;;;;6.00;2.50;;;16.70;56.50;;;;;;5094627;28;20180;-61
2023/01/14 06:09:42;;;;;;;7.65;2.58;;;16.70;56.50;;;;;;5094437;28;20253;-63
2023/01/14 06:12:08;;;;;;;7.13;2.50;;;16.60;56.50;;;;;;5095427;28;20185;-60
2023/01/14 06:14:33;;;;;;;5.72;2.10;;;16.60;56.40;;;;;;5093802;28;20586;-62
2023/01/14 06:17:06;;;;;;;4.95;2.33;;;16.60;56.40;;;;;;5095082;28;20655;-62
2023/01/14 06:19:32;;;;;;;6.63;2.50;;;16.60;56.40;;;;;;5094292;28;20224;-63
2023/01/14 06:21:57;;;;;;;5.65;2.33;;;16.60;56.40;;;;;;5095170;28;20640;-61
2023/01/14 06:24:23;;;;;;;6.47;2.65;;;16.60;56.40;;;;;;5095066;28;20169;-61
2023/01/14 06:26:48;;;;;;;5.68;2.15;;;16.60;56.40;;;;;;5093759;28;20174;-60
2023/01/14 06:29:14;;;;;;;6.78;2.50;;;16.60;56.40;;;;;;5094791;28;20184;-60
2023/01/14 06:31:40;;;;;;;6.15;2.53;;;16.60;56.50;;;;;;5094497;28;20177;-63
2023/01/14 06:34:05;;;;;;;5.93;2.22;;;16.60;56.40;;;;;;5093897;28;20217;-62
2023/01/14 06:36:33;;;;;;;5.97;2.58;;;16.60;56.40;;;;;;5094608;28;20237;-63
2023/01/14 06:38:59;;;;;;;5.63;2.17;;;16.60;56.40;;;;;;5094695;28;20176;-63
2023/01/14 06:41:24;;;;;;;5.78;2.50;;;16.50;56.40;;;;;;5093958;28;20173;-62
2023/01/14 06:43:50;;;;;;;9.40;3.05;;;16.60;56.40;;;;;;5094155;28;20525;-62
2023/01/14 06:46:16;;;;;;;5.65;2.33;;;16.50;56.40;;;;;;5094376;28;20178;-63
2023/01/14 06:48:41;;;;;;;6.68;2.67;;;16.50;56.40;;;;;;5093368;28;20169;-62
2023/01/14 06:51:12;;;;;;;4.93;2.42;;;16.50;56.40;;;;;;5094522;28;20219;-61
2023/01/14 06:53:38;;;;;;;6.00;2.33;;;16.50;56.40;;;;;;5094245;28;20166;-61
2023/01/14 06:56:05;;;;;;;3.78;1.90;;;16.50;56.40;;;;;;5093669;28;20220;-62
2023/01/14 06:58:30;;;;;;;6.07;2.40;;;16.50;56.40;;;;;;5094225;28;20173;-61
2023/01/14 07:00:56;;;;;;;8.07;2.67;;;16.50;56.30;;;;;;5094089;28;20181;-61
2023/01/14 07:03:22;;;;;;;5.53;2.20;;;16.50;56.40;;;;;;5093295;28;20181;-63
2023/01/14 07:05:48;;;;;;;4.97;2.08;;;16.50;56.30;;;;;;5093652;28;20629;-61
2023/01/14 07:08:13;;;;;;;5.05;1.80;;;16.60;56.30;;;;;;5093990;28;20185;-62
2023/01/14 07:10:39;;;;;;;5.97;2.50;;;16.60;56.30;;;;;;5092799;28;20180;-61
2023/01/14 07:13:04;;;;;;;6.55;2.45;;;16.60;56.20;;;;;;5094017;28;20178;-61
2023/01/14 07:15:30;;;;;;;7.78;2.33;;;16.70;56.20;;;;;;5093033;28;20236;-62
2023/01/14 07:17:55;;;;;;;6.65;2.20;;;16.70;56.20;;;;;;5093702;28;20207;-61
2023/01/14 07:20:21;;;;;;;4.28;2.10;;;16.70;56.20;;;;;;5093148;28;20177;-60
2023/01/14 07:22:46;;;;;;;4.07;2.17;;;16.60;56.10;;;;;;5092818;28;20185;-60
2023/01/14 07:25:12;;;;;;;6.30;2.35;;;16.70;56.20;;;;;;5093663;28;20170;-60
2023/01/14 07:27:37;;;;;;;9.77;3.22;;;16.70;56.20;;;;;;5093356;28;20173;-60
2023/01/14 07:30:03;;;;;;;4.40;1.85;;;16.60;56.10;;;;;;5092935;28;20185;-61
2023/01/14 07:32:31;;;;;;;3.95;1.95;;;16.60;56.20;;;;;;5093606;28;20180;-61
2023/01/14 07:34:57;;;;;;;5.32;2.00;;;16.60;56.20;;;;;;5093598;28;20208;-61
2023/01/14 07:37:22;;;;;;;6.65;2.35;;;16.60;56.10;;;;;;5092825;28;20177;-61
2023/01/14 07:39:48;;;;;;;7.63;2.67;;;16.60;56.10;;;;;;5093206;28;20519;-61
2023/01/14 07:42:17;;;;;;;5.43;2.65;;;16.60;56.20;;;;;;5093440;28;20244;-61
2023/01/14 07:44:43;;;;;;;5.35;2.63;;;16.50;56.20;;;;;;5092274;28;20531;-61
2023/01/14 07:47:11;;;;;;;6.03;2.20;;;16.50;56.20;;;;;;5093607;28;20174;-61
2023/01/14 07:49:39;;;;;;;5.28;2.20;;;16.50;56.20;;;;;;5093200;28;20173;-61
2023/01/14 07:52:05;;;;;;;6.10;2.40;;;16.50;56.20;;;;;;5092531;28;20651;-61
2023/01/14 07:54:30;;;;;;;6.53;2.22;;;16.50;56.20;;;;;;5093299;28;20230;-60
2023/01/14 07:56:56;;;;;;;6.63;2.97;;;16.50;56.20;;;;;;5093026;28;20699;-60
2023/01/14 07:59:21;;;;;;;6.95;2.50;;;16.50;56.20;;;;;;5092558;28;20174;-60
2023/01/14 08:01:47;;;;;;;6.55;2.42;;;16.50;56.30;;;;;;5093005;28;20178;-61
2023/01/14 08:04:12;;;;;;;6.60;2.50;;;16.50;56.40;;;;;;5093376;28;20170;-62
2023/01/14 08:06:38;;;;;;;5.28;2.42;;;16.40;56.30;;;;;;5092157;28;20170;-61
2023/01/14 08:09:03;;;;;;;6.43;2.40;;;16.40;56.30;;;;;;5093231;28;20173;-61
2023/01/14 08:11:29;;;;;;;5.80;2.00;;;16.40;56.30;;;;;;5093225;28;20181;-61
2023/01/14 08:13:55;;;;;;;6.40;2.35;;;16.40;56.30;;;;;;5091694;28;20173;-60
2023/01/14 08:16:21;;;;;;;5.45;2.30;;;16.50;56.30;;;;;;5093076;28;20595;-61
2023/01/14 08:18:48;;;;;;;5.85;2.40;;;16.50;56.30;;;;;;5092478;28;20198;-61
2023/01/14 08:21:13;;;;;;;3.63;1.88;;;16.50;56.20;;;;;;5092868;28;20174;-60
2023/01/14 08:23:39;;;;;;;4.40;2.28;;;16.50;56.20;;;;;;5092597;28;20165;-60
2023/01/14 08:26:06;;;;;;;5.88;2.13;;;16.50;56.20;;;;;;5092191;28;20174;-60
2023/01/14 08:28:32;;;;;;;9.15;2.67;;;16.50;56.20;;;;;;5092509;28;20698;-67
2023/01/14 08:31:10;;;;;;;6.10;2.13;;;16.50;56.60;;;;;;5094402;28;20762;-75
2023/01/14 08:33:37;;;;;;;4.80;2.13;;;16.50;56.70;;;;;;5096181;28;20170;-77
2023/01/14 08:36:07;;;;;;;5.57;2.00;;;16.60;56.70;;;;;;5097047;28;20625;-73
2023/01/14 08:38:33;;;;;;;4.80;2.33;;;16.50;56.70;;;;;;5096603;28;20173;-66
2023/01/14 08:41:03;;;;;;;6.43;2.20;;;16.50;56.70;;;;;;5096157;28;20532;-72
2023/01/14 08:43:28;;;;;;;6.80;2.67;;;16.50;57.70;;;;;;5096802;28;20178;-72
2023/01/14 08:45:54;;;;;;;6.43;2.17;;;16.50;57.20;;;;;;5096561;28;20204;-72
2023/01/14 08:48:19;;;;;;;4.72;1.95;;;16.50;57.10;;;;;;5096364;28;20314;-72
2023/01/14 08:50:45;;;;;;;5.10;2.05;;;16.40;56.90;;;;;;5096457;28;20539;-72
2023/01/14 08:53:10;;;;;;;4.75;2.03;;;16.40;56.80;;;;;;5096767;28;20644;-72
2023/01/14 08:55:36;;;;;;;4.38;1.98;;;16.40;56.90;;;;;;5095417;28;20213;-72
2023/01/14 08:58:05;;;;;;;6.65;2.35;;;16.40;56.90;;;;;;5096519;28;20185;-73
2023/01/14 09:00:31;;;;;;;6.40;2.40;;;16.40;57.10;;;;;;5096408;28;20180;-73
2023/01/14 09:02:56;;;;;;;3.75;2.10;;;16.40;57.30;;;;;;5095787;28;20584;-73
2023/01/14 09:05:22;;;;;;;4.15;1.70;;;16.40;57.40;;;;;;5096209;28;20667;-67
2023/01/14 09:18:43;;;;;;;6.53;2.38;;;16.50;57.30;;;;;;5093835;28;20185;-70
2023/01/14 09:21:09;;;;;;;3.58;2.15;;;16.60;57.40;;;;;;5098021;28;20173;-70
2023/01/14 09:23:34;;;;;;;3.50;1.60;;;16.70;57.50;;;;;;5096182;28;20165;-71
2023/01/14 09:26:00;;;;;;;4.68;2.15;;;16.70;57.40;;;;;;5116258;28;20169;-70
2023/01/14 09:28:26;;;;;;;3.47;1.90;;;16.80;57.40;;;;;;5115894;28;20161;-70
2023/01/14 09:30:51;;;;;;;3.35;1.80;;;16.80;57.20;;;;;;5114579;28;20173;-71
2023/01/14 09:33:17;;;;;;;7.40;2.00;;;16.80;57.20;;;;;;5115970;28;20612;-69
2023/01/14 09:35:42;;;;;;;8.15;1.73;;;16.80;57.10;;;;;;5115844;28;20204;-70
2023/01/14 09:38:08;;;;;;;2.58;1.90;;;16.90;57.20;;;;;;5115717;28;20555;-68
2023/01/14 09:40:38;;;;;;;5.15;1.52;;;16.90;57.10;;;;;;5115844;28;20169;-70
2023/01/14 09:43:04;;;;;;;4.90;2.03;;;16.90;57.20;;;;;;5080363;28;20177;-70
2023/01/14 09:45:31;;;;;;;4.80;1.52;;;16.90;57.20;;;;;;5080420;28;20169;-69
2023/01/14 09:47:59;;;;;;;4.15;1.65;;;16.90;57.20;;;;;;5115886;28;20173;-70
2023/01/14 09:50:31;;;;;;;3.67;1.73;;;16.90;57.20;;;;;;5115229;28;20524;-69
2023/01/14 09:53:03;;;;;;;4.07;1.80;;;16.90;57.20;;;;;;5115908;28;20181;-67
2023/01/14 09:55:44;;;;;;;4.15;1.40;;;16.90;57.20;;;;;;5115964;28;20205;-70
2023/01/14 09:58:26;;;;;;;3.83;1.70;;;17.00;57.20;;;;;;5080221;28;20216;-70
2023/01/14 10:01:08;;;;;;;3.60;1.60;;;16.90;57.10;;;;;;5098401;28;20199;-70
2023/01/14 10:03:54;;;;;;;4.70;1.67;;;17.00;57.20;;;;;;5099096;28;20177;-69
2023/01/14 10:06:20;;;;;;;2.95;1.60;;;16.90;57.00;;;;;;5096706;28;20180;-68
2023/01/14 10:09:02;;;;;;;3.65;1.80;;;16.90;57.20;;;;;;5080270;28;20161;-69
2023/01/14 10:11:28;;;;;;;4.53;1.27;;;16.90;57.20;;;;;;5096759;28;20177;-72
2023/01/14 10:14:02;;;;;;;4.03;1.80;;;16.90;57.40;;;;;;5097055;28;20172;-68
2023/01/14 10:16:30;;;;;;;3.10;1.30;;;16.90;57.40;;;;;;5093692;28;20234;-71
2023/01/14 10:19:20;;;;;;;2.15;1.27;;;16.80;57.70;;;;;;5058315;28;20175;-72
2023/01/14 10:21:48;;;;;;;4.00;1.70;;;16.80;57.50;;;;;;5071743;28;20181;-72
2023/01/14 10:24:14;;;;;;;3.95;1.65;;;16.70;57.50;;;;;;5073466;28;20178;-71
2023/01/14 10:26:39;;;;;;;3.17;1.50;;;16.70;57.50;;;;;;5073545;28;20198;-72
2023/01/14 10:29:16;;;;;;;4.78;1.50;;;16.70;57.40;;;;;;5073241;28;20194;-72
2023/01/14 10:31:49;;;;;;;4.40;1.65;;;16.70;57.40;;;;;;5074397;28;20185;-73
2023/01/14 10:34:21;;;;;;;3.38;1.50;;;16.70;57.40;;;;;;5036987;28;20236;-71
2023/01/14 10:36:46;;;;;;;2.85;1.60;;;16.60;57.40;;;;;;5071568;28;20735;-71
2023/01/14 10:39:12;;;;;;;4.28;1.45;;;16.60;57.40;;;;;;5073365;28;20182;-73
2023/01/14 10:41:50;;;;;;;5.15;1.77;;;16.60;57.40;;;;;;5055602;28;20200;-73
2023/01/14 10:44:27;;;;;;;2.92;1.58;;;16.60;57.40;;;;;;5073393;28;20162;-72
2023/01/14 10:46:56;;;;;;;3.55;1.50;;;16.60;57.40;;;;;;5072146;28;20210;-74
2023/01/14 10:49:24;;;;;;;3.65;2.13;;;16.70;57.40;;;;;;5072965;28;20182;-72
2023/01/14 10:51:50;;;;;;;2.10;1.38;;;16.70;57.30;;;;;;5056625;28;20194;-72
2023/01/14 10:54:24;;;;;;;1.80;1.20;;;16.80;57.10;;;;;;5072853;28;20214;-71
2023/01/14 10:57:08;;;;;;;3.40;1.50;;;16.80;57.10;;;;;;5073187;28;20275;-72
2023/01/14 10:59:43;;;;;;;5.68;2.15;;;16.80;57.00;;;;;;5073750;28;20174;-71
2023/01/14 11:02:19;;;;;;;2.83;1.42;;;16.80;57.60;;;;;;5073340;28;20190;-72
2023/01/14 11:04:45;;;;;;;1.85;1.15;;;16.80;57.10;;;;;;5073283;28;20166;-73
2023/01/14 11:07:14;;;;;;;2.80;1.17;;;16.70;57.10;;;;;;5055971;28;20166;-72
2023/01/14 11:09:40;;;;;;;3.25;1.30;;;16.70;57.10;;;;;;5071720;28;20198;-71
2023/01/14 11:12:06;;;;;;;6.65;1.63;;;16.70;57.10;;;;;;5072456;28;20166;-71
2023/01/14 11:14:36;;;;;;;2.50;1.52;;;16.60;57.10;;;;;;5073391;28;20395;-71
2023/01/14 11:17:24;;;;;;;3.00;1.55;;;16.60;57.10;;;;;;5109154;28;20397;-71
2023/01/14 11:19:50;;;;;;;2.97;1.40;;;16.70;57.10;;;;;;5113907;28;20173;-72
2023/01/14 11:22:16;;;;;;;1.67;1.00;;;16.80;57.10;;;;;;5113285;28;20177;-72
2023/01/14 11:24:45;;;;;;;3.00;1.50;;;16.80;56.90;;;;;;5095542;28;20214;-71
2023/01/14 11:27:22;;;;;;;2.58;1.63;;;16.70;56.80;;;;;;5096112;28;20169;-73
2023/01/14 11:29:53;;;;;;;2.65;1.23;;;16.80;56.90;;;;;;5095853;28;20224;-73
2023/01/14 11:32:21;;;;;;;2.65;1.10;;;16.70;56.90;;;;;;5080877;28;20169;-71
2023/01/14 11:34:50;;;;;;;3.13;1.40;;;16.70;56.90;;;;;;5114083;28;20169;-72
2023/01/14 11:37:33;;;;;;;3.60;1.10;;;16.70;57.10;;;;;;5095895;28;20185;-73
2023/01/14 11:39:59;;;;;;;3.50;1.50;;;16.70;57.20;;;;;;5095606;28;20247;-74
2023/01/14 11:42:36;;;;;;;3.05;1.45;;;16.70;57.10;;;;;;5114072;28;20204;-74
2023/01/14 11:45:10;;;;;;;2.50;1.30;;;16.70;57.10;;;;;;5095008;28;20214;-75
2023/01/14 11:47:44;;;;;;;3.83;1.55;;;16.80;57.30;;;;;;5113626;28;20173;-76
2023/01/14 11:50:12;;;;;;;2.83;1.40;;;16.90;57.30;;;;;;5112999;28;20203;-77
2023/01/14 11:52:37;;;;;;;3.05;1.30;;;17.10;57.10;;;;;;5095014;28;20184;-72
2023/01/14 11:55:07;;;;;;;4.82;1.10;;;17.20;56.90;;;;;;5113803;28;20177;-75
2023/01/14 11:57:33;;;;;;;2.38;0.85;;;17.50;56.70;;;;;;5077872;28;20686;-72
2023/01/14 11:59:58;;;;;;;3.47;1.17;;;17.70;56.30;;;;;;5113529;28;20283;-76
2023/01/14 12:02:34;;;;;;;2.95;1.00;;;17.90;56.00;;;;;;5113683;28;20201;-74
2023/01/14 12:05:16;;;;;;;1.27;0.98;;;18.00;55.80;;;;;;5094771;28;20208;-77
2023/01/14 12:07:50;;;;;;;1.60;1.00;;;18.30;55.50;;;;;;5095782;28;20200;-74
2023/01/14 12:10:22;;;;;;;1.92;1.23;;;18.30;55.50;;;;;;5079095;28;20212;-73
2023/01/14 12:19:06;;;;;;;1.42;0.80;;;18.50;55.10;;;;;;5112583;28;20624;-67
2023/01/14 12:21:41;;;;;;;3.22;1.15;;;18.60;55.10;;;;;;5095017;28;20173;-75
2023/01/14 12:24:37;;;;;;;1.55;1.13;;;18.80;54.80;;;;;;5079112;28;20640;-71
2023/01/14 12:27:02;;;;;;;3.50;0.80;;;18.80;54.90;;;;;;5074937;28;20193;-72
2023/01/14 12:29:40;;;;;;;2.35;0.93;;;18.80;54.90;;;;;;5095094;28;20658;-72
2023/01/14 12:32:06;;;;;;;5.88;0.85;;;18.90;54.80;;;;;;5094585;28;20176;-71
2023/01/14 12:34:43;;;;;;;1.27;0.80;;;19.00;54.80;;;;;;5095011;28;20181;-72
2023/01/14 12:37:19;;;;;;;2.30;0.90;;;19.00;54.70;;;;;;5078456;28;20240;-72
2023/01/14 12:45:46;;;;;;;3.13;0.98;;;19.20;54.50;;;;;;5096846;28;20265;-70
2023/01/14 12:48:16;;;;;;;2.47;0.50;;;19.20;54.40;;;;;;5096084;28;20225;-70
2023/01/14 12:50:52;;;;;;;1.70;0.77;;;19.20;54.40;;;;;;5112773;28;20188;-72
2023/01/14 12:53:23;;;;;;;2.45;0.90;;;19.20;54.40;;;;;;5112270;28;20519;-72
2023/01/14 12:55:48;;;;;;;1.42;0.85;;;19.20;54.40;;;;;;5094619;28;20209;-71
2023/01/14 12:58:22;;;;;;;3.13;0.93;;;19.30;54.30;;;;;;5094949;28;20318;-71
2023/01/14 13:00:52;;;;;;;2.10;0.75;;;19.30;54.30;;;;;;5093850;28;20170;-71
2023/01/14 13:03:25;;;;;;;2.15;0.82;;;19.40;54.30;;;;;;5095199;28;20169;-69
2023/01/14 13:05:53;;;;;;;1.45;0.70;;;19.40;54.20;;;;;;5094305;28;20180;-69
2023/01/14 13:08:25;;;;;;;1.23;0.63;;;19.50;54.10;;;;;;5112217;28;20177;-69
2023/01/14 13:11:03;;;;;;;1.17;0.90;;;19.50;54.10;;;;;;5094396;28;20184;-71
2023/01/14 13:13:30;;;;;;;1.63;0.82;;;19.40;54.10;;;;;;5112836;28;20173;-72
2023/01/14 13:15:56;;;;;;;1.02;0.60;;;19.50;54.10;;;;;;5076774;28;20233;-72
2023/01/14 13:18:33;;;;;;;0.95;0.50;;;19.50;54.20;;;;;;5078917;28;20689;-72
2023/01/14 13:20:59;;;;;;;2.10;0.80;;;19.50;54.10;;;;;;5116771;28;20307;-71
2023/01/14 13:23:37;;;;;;;1.13;0.70;;;19.50;54.10;;;;;;5115757;28;20252;-72
2023/01/14 13:26:18;;;;;;;1.08;0.80;;;19.60;54.00;;;;;;5116696;28;20176;-71
2023/01/14 13:29:18;;;;;;;1.17;0.70;;;19.70;54.00;;;;;;5115337;28;20279;-71
2023/01/14 13:31:45;;;;;;;1.02;0.80;;;19.70;53.90;;;;;;5116299;28;20169;-71
2023/01/14 13:34:28;;;;;;;0.70;0.52;;;19.70;54.00;;;;;;5098485;28;20173;-72
2023/01/14 13:36:59;;;;;;;0.63;0.60;;;19.70;53.90;;;;;;5115220;28;20735;-72
2023/01/14 13:39:25;;;;;;;1.15;0.70;;;19.70;54.00;;;;;;5116288;28;20174;-72